sensor_id;sensor_type;location;lat;lon;timestamp;P1;durP1;ratioP1;P2;durP2;ratioP2
79728;SDS011;69218;52.132;5.418;2023-05-09T00:02:00;34.75;;;13.15;;
79728;SDS011;69218;52.132;5.418;2023-05-09T00:04:27;34.58;;;12.52;;
79728;SDS011;69218;52.132;5.418;2023-05-09T00:06:54;31.48;;;11.98;;
79728;SDS011;69218;52.132;5.418;2023-05-09T00:09:20;31.27;;;11.80;;
79728;SDS011;69218;52.132;5.418;2023-05-09T00:11:47;29.42;;;11.38;;
79728;SDS011;69218;52.132;5.418;2023-05-09T00:14:13;34.70;;;12.73;;
79728;SDS011;69218;52.132;5.418;2023-05-09T00:16:43;33.90;;;12.48;;
79728;SDS011;69218;52.132;5.418;2023-05-09T00:19:10;27.85;;;10.63;;
79728;SDS011;69218;52.132;5.418;2023-05-09T00:21:38;36.15;;;12.52;;
79728;SDS011;69218;52.132;5.418;2023-05-09T00:24:05;36.25;;;13.20;;
79728;SDS011;69218;52.132;5.418;2023-05-09T00:26:31;35.78;;;12.70;;
79728;SDS011;69218;52.132;5.418;2023-05-09T00:28:58;29.38;;;11.80;;
79728;SDS011;69218;52.132;5.418;2023-05-09T00:31:25;34.55;;;11.93;;
79728;SDS011;69218;52.132;5.418;2023-05-09T00:33:52;34.47;;;12.48;;
79728;SDS011;69218;52.132;5.418;2023-05-09T00:36:19;34.88;;;12.40;;
79728;SDS011;69218;52.132;5.418;2023-05-09T00:38:46;29.15;;;10.65;;
79728;SDS011;69218;52.132;5.418;2023-05-09T00:41:12;29.23;;;10.73;;
79728;SDS011;69218;52.132;5.418;2023-05-09T00:43:39;31.60;;;12.20;;
79728;SDS011;69218;52.132;5.418;2023-05-09T00:46:05;35.22;;;12.65;;
79728;SDS011;69218;52.132;5.418;2023-05-09T00:48:32;31.45;;;12.15;;
79728;SDS011;69218;52.132;5.418;2023-05-09T00:50:58;30.85;;;11.85;;
79728;SDS011;69218;52.132;5.418;2023-05-09T00:53:25;32.47;;;12.45;;
79728;SDS011;69218;52.132;5.418;2023-05-09T00:55:52;28.77;;;11.65;;
79728;SDS011;69218;52.132;5.418;2023-05-09T00:58:20;34.40;;;12.82;;
79728;SDS011;69218;52.132;5.418;2023-05-09T01:00:47;32.78;;;11.90;;
79728;SDS011;69218;52.132;5.418;2023-05-09T01:03:13;28.10;;;11.43;;
79728;SDS011;69218;52.132;5.418;2023-05-09T01:06:03;39.75;;;12.30;;
79728;SDS011;69218;52.132;5.418;2023-05-09T01:08:36;28.65;;;11.45;;
79728;SDS011;69218;52.132;5.418;2023-05-09T01:11:16;34.00;;;12.00;;
79728;SDS011;69218;52.132;5.418;2023-05-09T01:21:34;38.65;;;12.77;;
79728;SDS011;69218;52.132;5.418;2023-05-09T01:27:04;36.15;;;13.40;;
79728;SDS011;69218;52.132;5.418;2023-05-09T01:29:55;34.13;;;12.55;;
79728;SDS011;69218;52.132;5.418;2023-05-09T01:32:23;31.75;;;11.30;;
79728;SDS011;69218;52.132;5.418;2023-05-09T01:34:58;29.15;;;11.07;;
79728;SDS011;69218;52.132;5.418;2023-05-09T01:37:30;31.05;;;12.00;;
79728;SDS011;69218;52.132;5.418;2023-05-09T01:40:05;34.65;;;13.02;;
79728;SDS011;69218;52.132;5.418;2023-05-09T01:45:11;39.38;;;13.30;;
79728;SDS011;69218;52.132;5.418;2023-05-09T01:47:41;34.83;;;11.98;;
79728;SDS011;69218;52.132;5.418;2023-05-09T01:50:09;34.92;;;12.57;;
79728;SDS011;69218;52.132;5.418;2023-05-09T01:52:37;32.25;;;11.60;;
79728;SDS011;69218;52.132;5.418;2023-05-09T01:55:07;36.28;;;13.38;;
79728;SDS011;69218;52.132;5.418;2023-05-09T01:57:35;33.55;;;12.00;;
79728;SDS011;69218;52.132;5.418;2023-05-09T02:00:04;35.38;;;13.02;;
79728;SDS011;69218;52.132;5.418;2023-05-09T02:02:33;32.22;;;11.48;;
79728;SDS011;69218;52.132;5.418;2023-05-09T02:05:01;33.90;;;12.13;;
79728;SDS011;69218;52.132;5.418;2023-05-09T02:07:27;28.70;;;11.35;;
79728;SDS011;69218;52.132;5.418;2023-05-09T02:09:55;34.67;;;12.52;;
79728;SDS011;69218;52.132;5.418;2023-05-09T02:12:23;36.08;;;13.75;;
79728;SDS011;69218;52.132;5.418;2023-05-09T02:14:50;37.33;;;14.10;;
79728;SDS011;69218;52.132;5.418;2023-05-09T02:17:16;36.13;;;13.18;;
79728;SDS011;69218;52.132;5.418;2023-05-09T02:19:44;32.42;;;11.70;;
79728;SDS011;69218;52.132;5.418;2023-05-09T02:22:11;33.42;;;13.10;;
79728;SDS011;69218;52.132;5.418;2023-05-09T02:24:38;36.60;;;13.07;;
79728;SDS011;69218;52.132;5.418;2023-05-09T02:27:05;38.47;;;13.40;;
79728;SDS011;69218;52.132;5.418;2023-05-09T02:29:33;41.17;;;13.35;;
79728;SDS011;69218;52.132;5.418;2023-05-09T02:32:10;30.55;;;11.60;;
79728;SDS011;69218;52.132;5.418;2023-05-09T02:34:41;32.85;;;12.02;;
79728;SDS011;69218;52.132;5.418;2023-05-09T02:37:09;35.72;;;12.20;;
79728;SDS011;69218;52.132;5.418;2023-05-09T02:39:35;32.97;;;11.70;;
79728;SDS011;69218;52.132;5.418;2023-05-09T02:42:06;35.42;;;13.63;;
79728;SDS011;69218;52.132;5.418;2023-05-09T02:47:06;32.38;;;11.88;;
79728;SDS011;69218;52.132;5.418;2023-05-09T02:49:33;39.03;;;12.65;;
79728;SDS011;69218;52.132;5.418;2023-05-09T02:51:59;27.05;;;10.70;;
79728;SDS011;69218;52.132;5.418;2023-05-09T02:54:26;39.00;;;13.27;;
79728;SDS011;69218;52.132;5.418;2023-05-09T02:56:53;28.02;;;11.10;;
79728;SDS011;69218;52.132;5.418;2023-05-09T02:59:19;37.35;;;12.73;;
79728;SDS011;69218;52.132;5.418;2023-05-09T03:01:46;32.88;;;11.82;;
79728;SDS011;69218;52.132;5.418;2023-05-09T03:04:12;28.27;;;10.80;;
79728;SDS011;69218;52.132;5.418;2023-05-09T03:06:39;30.77;;;11.43;;
79728;SDS011;69218;52.132;5.418;2023-05-09T03:09:05;29.92;;;11.45;;
79728;SDS011;69218;52.132;5.418;2023-05-09T03:11:32;28.15;;;10.32;;
79728;SDS011;69218;52.132;5.418;2023-05-09T03:13:58;39.42;;;13.70;;
79728;SDS011;69218;52.132;5.418;2023-05-09T03:16:25;40.70;;;14.23;;
79728;SDS011;69218;52.132;5.418;2023-05-09T03:18:51;30.80;;;11.50;;
79728;SDS011;69218;52.132;5.418;2023-05-09T03:21:18;36.53;;;13.32;;
79728;SDS011;69218;52.132;5.418;2023-05-09T03:23:44;38.67;;;13.88;;
79728;SDS011;69218;52.132;5.418;2023-05-09T03:26:11;38.28;;;13.57;;
79728;SDS011;69218;52.132;5.418;2023-05-09T03:28:38;33.72;;;11.63;;
79728;SDS011;69218;52.132;5.418;2023-05-09T03:31:06;37.55;;;13.68;;
79728;SDS011;69218;52.132;5.418;2023-05-09T03:33:32;38.38;;;13.30;;
79728;SDS011;69218;52.132;5.418;2023-05-09T03:35:58;37.67;;;13.55;;
79728;SDS011;69218;52.132;5.418;2023-05-09T03:38:25;39.20;;;14.15;;
79728;SDS011;69218;52.132;5.418;2023-05-09T03:40:52;37.72;;;13.45;;
79728;SDS011;69218;52.132;5.418;2023-05-09T03:43:19;36.63;;;12.40;;
79728;SDS011;69218;52.132;5.418;2023-05-09T03:45:45;27.25;;;10.52;;
79728;SDS011;69218;52.132;5.418;2023-05-09T03:48:12;39.35;;;13.65;;
79728;SDS011;69218;52.132;5.418;2023-05-09T03:50:38;37.50;;;13.05;;
79728;SDS011;69218;52.132;5.418;2023-05-09T03:53:05;34.13;;;13.40;;
79728;SDS011;69218;52.132;5.418;2023-05-09T03:55:31;39.45;;;13.43;;
79728;SDS011;69218;52.132;5.418;2023-05-09T03:57:57;36.63;;;12.50;;
79728;SDS011;69218;52.132;5.418;2023-05-09T04:00:24;35.60;;;12.02;;
79728;SDS011;69218;52.132;5.418;2023-05-09T04:02:54;31.38;;;11.90;;
79728;SDS011;69218;52.132;5.418;2023-05-09T04:05:20;35.03;;;12.63;;
79728;SDS011;69218;52.132;5.418;2023-05-09T04:07:47;32.53;;;12.00;;
79728;SDS011;69218;52.132;5.418;2023-05-09T04:10:13;33.50;;;12.20;;
79728;SDS011;69218;52.132;5.418;2023-05-09T04:12:40;33.08;;;13.65;;
79728;SDS011;69218;52.132;5.418;2023-05-09T04:15:07;34.05;;;12.02;;
79728;SDS011;69218;52.132;5.418;2023-05-09T04:17:34;33.08;;;12.52;;
79728;SDS011;69218;52.132;5.418;2023-05-09T04:20:00;28.08;;;11.75;;
79728;SDS011;69218;52.132;5.418;2023-05-09T04:22:28;32.22;;;11.98;;
79728;SDS011;69218;52.132;5.418;2023-05-09T04:24:55;31.88;;;12.30;;
79728;SDS011;69218;52.132;5.418;2023-05-09T04:27:22;29.58;;;12.13;;
79728;SDS011;69218;52.132;5.418;2023-05-09T04:29:48;27.20;;;11.07;;
79728;SDS011;69218;52.132;5.418;2023-05-09T04:32:15;24.88;;;10.38;;
79728;SDS011;69218;52.132;5.418;2023-05-09T04:34:41;30.48;;;11.30;;
79728;SDS011;69218;52.132;5.418;2023-05-09T04:37:08;29.10;;;11.30;;
79728;SDS011;69218;52.132;5.418;2023-05-09T04:39:34;30.55;;;11.18;;
79728;SDS011;69218;52.132;5.418;2023-05-09T04:42:01;32.08;;;12.02;;
79728;SDS011;69218;52.132;5.418;2023-05-09T04:44:27;29.77;;;11.68;;
79728;SDS011;69218;52.132;5.418;2023-05-09T04:46:54;27.27;;;10.63;;
79728;SDS011;69218;52.132;5.418;2023-05-09T04:49:20;29.70;;;12.00;;
79728;SDS011;69218;52.132;5.418;2023-05-09T04:51:47;27.92;;;11.73;;
79728;SDS011;69218;52.132;5.418;2023-05-09T04:54:13;31.35;;;12.45;;
79728;SDS011;69218;52.132;5.418;2023-05-09T04:56:40;28.83;;;11.77;;
79728;SDS011;69218;52.132;5.418;2023-05-09T04:59:06;27.83;;;11.15;;
79728;SDS011;69218;52.132;5.418;2023-05-09T05:01:33;32.88;;;11.40;;
79728;SDS011;69218;52.132;5.418;2023-05-09T05:03:59;27.42;;;10.57;;
79728;SDS011;69218;52.132;5.418;2023-05-09T05:06:26;28.98;;;10.85;;
79728;SDS011;69218;52.132;5.418;2023-05-09T05:08:52;26.98;;;10.90;;
79728;SDS011;69218;52.132;5.418;2023-05-09T05:11:19;26.85;;;10.10;;
79728;SDS011;69218;52.132;5.418;2023-05-09T05:13:46;24.83;;;9.85;;
79728;SDS011;69218;52.132;5.418;2023-05-09T05:16:13;20.23;;;9.30;;
79728;SDS011;69218;52.132;5.418;2023-05-09T05:18:39;25.83;;;10.07;;
79728;SDS011;69218;52.132;5.418;2023-05-09T05:21:06;21.33;;;8.55;;
79728;SDS011;69218;52.132;5.418;2023-05-09T05:23:32;23.65;;;9.52;;
79728;SDS011;69218;52.132;5.418;2023-05-09T05:25:58;24.30;;;9.48;;
79728;SDS011;69218;52.132;5.418;2023-05-09T05:28:25;22.42;;;9.50;;
79728;SDS011;69218;52.132;5.418;2023-05-09T05:30:51;23.08;;;9.68;;
79728;SDS011;69218;52.132;5.418;2023-05-09T05:33:18;19.88;;;8.73;;
79728;SDS011;69218;52.132;5.418;2023-05-09T05:35:44;22.40;;;9.05;;
79728;SDS011;69218;52.132;5.418;2023-05-09T05:38:11;21.48;;;9.13;;
79728;SDS011;69218;52.132;5.418;2023-05-09T05:40:37;19.23;;;8.88;;
79728;SDS011;69218;52.132;5.418;2023-05-09T05:43:03;21.10;;;9.15;;
79728;SDS011;69218;52.132;5.418;2023-05-09T05:45:30;21.65;;;10.07;;
79728;SDS011;69218;52.132;5.418;2023-05-09T05:47:57;20.45;;;8.95;;
79728;SDS011;69218;52.132;5.418;2023-05-09T05:50:23;22.60;;;8.95;;
79728;SDS011;69218;52.132;5.418;2023-05-09T05:52:50;22.27;;;8.35;;
79728;SDS011;69218;52.132;5.418;2023-05-09T05:55:16;20.08;;;8.52;;
79728;SDS011;69218;52.132;5.418;2023-05-09T05:57:43;18.65;;;8.23;;
79728;SDS011;69218;52.132;5.418;2023-05-09T06:00:09;18.65;;;7.88;;
79728;SDS011;69218;52.132;5.418;2023-05-09T06:02:37;16.58;;;8.13;;
79728;SDS011;69218;52.132;5.418;2023-05-09T06:05:06;17.95;;;8.55;;
79728;SDS011;69218;52.132;5.418;2023-05-09T06:07:33;19.05;;;8.35;;
79728;SDS011;69218;52.132;5.418;2023-05-09T06:10:00;16.45;;;7.25;;
79728;SDS011;69218;52.132;5.418;2023-05-09T06:12:26;17.83;;;7.55;;
79728;SDS011;69218;52.132;5.418;2023-05-09T06:14:53;17.45;;;7.85;;
79728;SDS011;69218;52.132;5.418;2023-05-09T06:17:19;20.10;;;8.02;;
79728;SDS011;69218;52.132;5.418;2023-05-09T06:19:46;19.30;;;8.10;;
79728;SDS011;69218;52.132;5.418;2023-05-09T06:22:12;18.95;;;8.20;;
79728;SDS011;69218;52.132;5.418;2023-05-09T06:24:39;20.02;;;7.65;;
79728;SDS011;69218;52.132;5.418;2023-05-09T06:27:05;16.35;;;8.10;;
79728;SDS011;69218;52.132;5.418;2023-05-09T06:29:32;14.82;;;7.15;;
79728;SDS011;69218;52.132;5.418;2023-05-09T06:31:58;16.27;;;8.50;;
79728;SDS011;69218;52.132;5.418;2023-05-09T06:34:25;17.20;;;7.78;;
79728;SDS011;69218;52.132;5.418;2023-05-09T06:36:51;19.60;;;8.35;;
79728;SDS011;69218;52.132;5.418;2023-05-09T06:39:18;17.55;;;7.93;;
79728;SDS011;69218;52.132;5.418;2023-05-09T06:41:45;17.40;;;7.85;;
79728;SDS011;69218;52.132;5.418;2023-05-09T06:44:11;15.13;;;8.15;;
79728;SDS011;69218;52.132;5.418;2023-05-09T06:46:38;16.90;;;8.18;;
79728;SDS011;69218;52.132;5.418;2023-05-09T06:49:05;16.13;;;7.95;;
79728;SDS011;69218;52.132;5.418;2023-05-09T06:51:32;17.67;;;8.05;;
79728;SDS011;69218;52.132;5.418;2023-05-09T06:53:58;17.67;;;7.97;;
79728;SDS011;69218;52.132;5.418;2023-05-09T06:56:25;17.52;;;8.23;;
79728;SDS011;69218;52.132;5.418;2023-05-09T06:58:52;17.52;;;8.77;;
79728;SDS011;69218;52.132;5.418;2023-05-09T07:01:18;18.60;;;8.90;;
79728;SDS011;69218;52.132;5.418;2023-05-09T07:03:45;16.00;;;7.80;;
79728;SDS011;69218;52.132;5.418;2023-05-09T07:06:12;16.92;;;8.23;;
79728;SDS011;69218;52.132;5.418;2023-05-09T07:08:39;18.65;;;8.27;;
79728;SDS011;69218;52.132;5.418;2023-05-09T07:11:05;17.38;;;8.35;;
79728;SDS011;69218;52.132;5.418;2023-05-09T07:13:32;17.85;;;8.50;;
79728;SDS011;69218;52.132;5.418;2023-05-09T07:15:58;17.52;;;8.57;;
79728;SDS011;69218;52.132;5.418;2023-05-09T07:18:25;21.35;;;9.05;;
79728;SDS011;69218;52.132;5.418;2023-05-09T07:20:51;20.23;;;8.70;;
79728;SDS011;69218;52.132;5.418;2023-05-09T07:23:18;18.35;;;8.77;;
79728;SDS011;69218;52.132;5.418;2023-05-09T07:25:44;17.70;;;8.07;;
79728;SDS011;69218;52.132;5.418;2023-05-09T07:28:10;16.10;;;8.23;;
79728;SDS011;69218;52.132;5.418;2023-05-09T07:30:37;17.23;;;8.68;;
79728;SDS011;69218;52.132;5.418;2023-05-09T07:33:04;17.48;;;8.52;;
79728;SDS011;69218;52.132;5.418;2023-05-09T07:35:31;17.17;;;8.73;;
79728;SDS011;69218;52.132;5.418;2023-05-09T07:37:58;17.48;;;7.97;;
79728;SDS011;69218;52.132;5.418;2023-05-09T07:40:25;17.35;;;8.55;;
79728;SDS011;69218;52.132;5.418;2023-05-09T07:42:51;16.50;;;8.32;;
79728;SDS011;69218;52.132;5.418;2023-05-09T07:45:20;17.33;;;8.05;;
79728;SDS011;69218;52.132;5.418;2023-05-09T07:47:49;17.90;;;8.55;;
79728;SDS011;69218;52.132;5.418;2023-05-09T07:50:15;16.63;;;8.35;;
79728;SDS011;69218;52.132;5.418;2023-05-09T07:52:42;16.40;;;8.05;;
79728;SDS011;69218;52.132;5.418;2023-05-09T07:55:09;17.88;;;8.73;;
79728;SDS011;69218;52.132;5.418;2023-05-09T07:57:37;15.50;;;8.80;;
79728;SDS011;69218;52.132;5.418;2023-05-09T08:00:05;16.67;;;8.52;;
79728;SDS011;69218;52.132;5.418;2023-05-09T08:02:33;19.67;;;8.95;;
79728;SDS011;69218;52.132;5.418;2023-05-09T08:05:00;16.75;;;8.32;;
79728;SDS011;69218;52.132;5.418;2023-05-09T08:07:27;17.42;;;8.30;;
79728;SDS011;69218;52.132;5.418;2023-05-09T08:09:54;16.23;;;8.15;;
79728;SDS011;69218;52.132;5.418;2023-05-09T08:12:21;17.33;;;8.18;;
79728;SDS011;69218;52.132;5.418;2023-05-09T08:14:47;14.35;;;7.65;;
79728;SDS011;69218;52.132;5.418;2023-05-09T08:17:14;13.82;;;7.72;;
79728;SDS011;69218;52.132;5.418;2023-05-09T08:19:41;14.43;;;7.97;;
79728;SDS011;69218;52.132;5.418;2023-05-09T08:22:07;14.88;;;7.38;;
79728;SDS011;69218;52.132;5.418;2023-05-09T08:24:34;17.55;;;7.70;;
79728;SDS011;69218;52.132;5.418;2023-05-09T08:27:00;17.08;;;7.63;;
79728;SDS011;69218;52.132;5.418;2023-05-09T08:29:27;15.88;;;7.97;;
79728;SDS011;69218;52.132;5.418;2023-05-09T08:31:54;16.65;;;8.07;;
79728;SDS011;69218;52.132;5.418;2023-05-09T08:34:21;15.70;;;7.63;;
79728;SDS011;69218;52.132;5.418;2023-05-09T08:36:47;15.32;;;7.57;;
79728;SDS011;69218;52.132;5.418;2023-05-09T08:39:14;14.75;;;7.35;;
79728;SDS011;69218;52.132;5.418;2023-05-09T08:41:40;16.05;;;7.13;;
79728;SDS011;69218;52.132;5.418;2023-05-09T08:44:08;15.88;;;6.85;;
79728;SDS011;69218;52.132;5.418;2023-05-09T08:46:36;13.23;;;7.22;;
79728;SDS011;69218;52.132;5.418;2023-05-09T08:49:05;12.57;;;7.07;;
79728;SDS011;69218;52.132;5.418;2023-05-09T08:51:34;11.45;;;6.15;;
79728;SDS011;69218;52.132;5.418;2023-05-09T08:54:01;11.63;;;6.20;;
79728;SDS011;69218;52.132;5.418;2023-05-09T08:56:29;12.35;;;6.47;;
79728;SDS011;69218;52.132;5.418;2023-05-09T08:58:56;11.73;;;6.07;;
79728;SDS011;69218;52.132;5.418;2023-05-09T09:01:24;11.00;;;5.80;;
79728;SDS011;69218;52.132;5.418;2023-05-09T09:03:52;8.95;;;4.80;;
79728;SDS011;69218;52.132;5.418;2023-05-09T09:06:19;9.60;;;5.60;;
79728;SDS011;69218;52.132;5.418;2023-05-09T09:08:47;9.07;;;5.00;;
79728;SDS011;69218;52.132;5.418;2023-05-09T09:11:15;10.82;;;5.75;;
79728;SDS011;69218;52.132;5.418;2023-05-09T09:13:42;10.02;;;4.95;;
79728;SDS011;69218;52.132;5.418;2023-05-09T09:16:13;11.20;;;5.47;;
79728;SDS011;69218;52.132;5.418;2023-05-09T09:18:45;10.60;;;5.38;;
79728;SDS011;69218;52.132;5.418;2023-05-09T09:21:14;9.73;;;5.47;;
79728;SDS011;69218;52.132;5.418;2023-05-09T09:23:42;11.13;;;5.25;;
79728;SDS011;69218;52.132;5.418;2023-05-09T09:26:12;8.05;;;4.82;;
79728;SDS011;69218;52.132;5.418;2023-05-09T09:28:40;8.10;;;4.78;;
79728;SDS011;69218;52.132;5.418;2023-05-09T09:31:20;8.05;;;4.72;;
79728;SDS011;69218;52.132;5.418;2023-05-09T09:34:00;9.02;;;4.72;;
79728;SDS011;69218;52.132;5.418;2023-05-09T09:36:27;7.38;;;4.45;;
79728;SDS011;69218;52.132;5.418;2023-05-09T09:38:55;9.88;;;4.72;;
79728;SDS011;69218;52.132;5.418;2023-05-09T09:41:32;8.80;;;4.00;;
79728;SDS011;69218;52.132;5.418;2023-05-09T09:44:07;8.32;;;4.63;;
79728;SDS011;69218;52.132;5.418;2023-05-09T09:46:50;8.65;;;4.45;;
79728;SDS011;69218;52.132;5.418;2023-05-09T09:49:18;7.85;;;4.32;;
79728;SDS011;69218;52.132;5.418;2023-05-09T09:51:49;8.20;;;4.22;;
79728;SDS011;69218;52.132;5.418;2023-05-09T09:54:20;7.88;;;4.43;;
79728;SDS011;69218;52.132;5.418;2023-05-09T09:56:48;7.85;;;4.50;;
79728;SDS011;69218;52.132;5.418;2023-05-09T09:59:20;7.80;;;4.35;;
79728;SDS011;69218;52.132;5.418;2023-05-09T10:01:57;8.82;;;4.72;;
79728;SDS011;69218;52.132;5.418;2023-05-09T10:04:34;7.03;;;3.83;;
79728;SDS011;69218;52.132;5.418;2023-05-09T10:07:03;9.15;;;4.35;;
79728;SDS011;69218;52.132;5.418;2023-05-09T10:09:32;7.80;;;3.85;;
79728;SDS011;69218;52.132;5.418;2023-05-09T10:12:03;9.18;;;4.10;;
79728;SDS011;69218;52.132;5.418;2023-05-09T10:14:32;7.53;;;4.32;;
79728;SDS011;69218;52.132;5.418;2023-05-09T10:17:01;8.23;;;3.90;;
79728;SDS011;69218;52.132;5.418;2023-05-09T10:19:30;7.15;;;4.20;;
79728;SDS011;69218;52.132;5.418;2023-05-09T10:21:58;8.23;;;4.40;;
79728;SDS011;69218;52.132;5.418;2023-05-09T10:27:01;7.00;;;4.20;;
79728;SDS011;69218;52.132;5.418;2023-05-09T10:29:33;7.82;;;4.03;;
79728;SDS011;69218;52.132;5.418;2023-05-09T10:32:10;8.00;;;4.63;;
79728;SDS011;69218;52.132;5.418;2023-05-09T10:35:00;7.88;;;4.63;;
79728;SDS011;69218;52.132;5.418;2023-05-09T10:37:30;7.10;;;4.13;;
79728;SDS011;69218;52.132;5.418;2023-05-09T10:39:59;7.45;;;3.92;;
79728;SDS011;69218;52.132;5.418;2023-05-09T10:42:27;7.45;;;4.15;;
79728;SDS011;69218;52.132;5.418;2023-05-09T10:44:55;6.90;;;4.00;;
79728;SDS011;69218;52.132;5.418;2023-05-09T10:47:27;8.05;;;4.03;;
79728;SDS011;69218;52.132;5.418;2023-05-09T10:49:57;7.32;;;3.83;;
79728;SDS011;69218;52.132;5.418;2023-05-09T10:52:23;8.38;;;4.28;;
79728;SDS011;69218;52.132;5.418;2023-05-09T10:54:57;7.85;;;4.15;;
79728;SDS011;69218;52.132;5.418;2023-05-09T10:57:29;7.38;;;4.22;;
79728;SDS011;69218;52.132;5.418;2023-05-09T10:59:57;7.05;;;3.90;;
79728;SDS011;69218;52.132;5.418;2023-05-09T11:02:25;7.88;;;4.53;;
79728;SDS011;69218;52.132;5.418;2023-05-09T11:05:11;7.93;;;3.75;;
79728;SDS011;69218;52.132;5.418;2023-05-09T11:07:39;6.22;;;3.97;;
79728;SDS011;69218;52.132;5.418;2023-05-09T11:12:57;7.05;;;4.20;;
79728;SDS011;69218;52.132;5.418;2023-05-09T11:15:25;8.00;;;4.60;;
79728;SDS011;69218;52.132;5.418;2023-05-09T11:18:04;7.57;;;4.40;;
79728;SDS011;69218;52.132;5.418;2023-05-09T11:20:33;7.40;;;4.13;;
79728;SDS011;69218;52.132;5.418;2023-05-09T11:23:03;6.60;;;3.95;;
79728;SDS011;69218;52.132;5.418;2023-05-09T11:25:31;7.32;;;3.92;;
79728;SDS011;69218;52.132;5.418;2023-05-09T11:27:59;7.75;;;4.20;;
79728;SDS011;69218;52.132;5.418;2023-05-09T11:30:47;6.32;;;3.38;;
79728;SDS011;69218;52.132;5.418;2023-05-09T11:33:21;9.68;;;3.65;;
79728;SDS011;69218;52.132;5.418;2023-05-09T11:38:45;6.18;;;4.03;;
79728;SDS011;69218;52.132;5.418;2023-05-09T11:41:12;7.78;;;4.07;;
79728;SDS011;69218;52.132;5.418;2023-05-09T11:43:39;8.90;;;4.07;;
79728;SDS011;69218;52.132;5.418;2023-05-09T11:48:37;6.55;;;3.45;;
79728;SDS011;69218;52.132;5.418;2023-05-09T11:51:05;6.15;;;3.42;;
79728;SDS011;69218;52.132;5.418;2023-05-09T11:53:32;7.57;;;3.97;;
79728;SDS011;69218;52.132;5.418;2023-05-09T11:56:02;7.03;;;4.10;;
79728;SDS011;69218;52.132;5.418;2023-05-09T11:58:29;7.88;;;4.28;;
79728;SDS011;69218;52.132;5.418;2023-05-09T12:00:56;7.53;;;4.82;;
79728;SDS011;69218;52.132;5.418;2023-05-09T12:03:23;6.60;;;3.80;;
79728;SDS011;69218;52.132;5.418;2023-05-09T12:05:51;7.05;;;4.28;;
79728;SDS011;69218;52.132;5.418;2023-05-09T12:08:19;8.85;;;4.57;;
79728;SDS011;69218;52.132;5.418;2023-05-09T12:10:47;7.65;;;4.20;;
79728;SDS011;69218;52.132;5.418;2023-05-09T12:13:14;6.78;;;4.10;;
79728;SDS011;69218;52.132;5.418;2023-05-09T12:15:40;6.15;;;3.47;;
79728;SDS011;69218;52.132;5.418;2023-05-09T12:18:10;6.72;;;3.90;;
79728;SDS011;69218;52.132;5.418;2023-05-09T12:20:43;6.90;;;3.80;;
79728;SDS011;69218;52.132;5.418;2023-05-09T12:23:12;6.30;;;3.42;;
79728;SDS011;69218;52.132;5.418;2023-05-09T12:25:52;6.72;;;3.85;;
79728;SDS011;69218;52.132;5.418;2023-05-09T12:28:23;8.88;;;4.15;;
79728;SDS011;69218;52.132;5.418;2023-05-09T12:30:51;6.18;;;3.72;;
79728;SDS011;69218;52.132;5.418;2023-05-09T12:33:18;6.97;;;3.42;;
79728;SDS011;69218;52.132;5.418;2023-05-09T12:35:45;6.72;;;4.15;;
79728;SDS011;69218;52.132;5.418;2023-05-09T12:38:22;8.18;;;4.32;;
79728;SDS011;69218;52.132;5.418;2023-05-09T12:40:58;7.95;;;4.10;;
79728;SDS011;69218;52.132;5.418;2023-05-09T12:43:30;6.90;;;4.60;;
79728;SDS011;69218;52.132;5.418;2023-05-09T12:46:01;6.95;;;4.35;;
79728;SDS011;69218;52.132;5.418;2023-05-09T12:48:28;7.93;;;4.28;;
79728;SDS011;69218;52.132;5.418;2023-05-09T12:51:05;6.43;;;3.90;;
79728;SDS011;69218;52.132;5.418;2023-05-09T12:53:35;6.32;;;3.92;;
79728;SDS011;69218;52.132;5.418;2023-05-09T12:56:04;8.25;;;4.30;;
79728;SDS011;69218;52.132;5.418;2023-05-09T12:58:37;7.55;;;4.13;;
79728;SDS011;69218;52.132;5.418;2023-05-09T13:01:04;6.20;;;3.80;;
79728;SDS011;69218;52.132;5.418;2023-05-09T13:03:31;5.93;;;3.72;;
79728;SDS011;69218;52.132;5.418;2023-05-09T13:06:03;7.25;;;3.53;;
79728;SDS011;69218;52.132;5.418;2023-05-09T13:08:31;6.38;;;3.58;;
79728;SDS011;69218;52.132;5.418;2023-05-09T13:10:58;5.68;;;3.63;;
79728;SDS011;69218;52.132;5.418;2023-05-09T13:13:40;5.53;;;3.28;;
79728;SDS011;69218;52.132;5.418;2023-05-09T13:16:08;6.70;;;4.00;;
79728;SDS011;69218;52.132;5.418;2023-05-09T13:18:36;7.22;;;3.80;;
79728;SDS011;69218;52.132;5.418;2023-05-09T13:21:03;6.85;;;3.75;;
79728;SDS011;69218;52.132;5.418;2023-05-09T13:23:29;6.15;;;3.75;;
79728;SDS011;69218;52.132;5.418;2023-05-09T13:25:55;5.25;;;3.15;;
79728;SDS011;69218;52.132;5.418;2023-05-09T13:28:22;6.25;;;3.90;;
79728;SDS011;69218;52.132;5.418;2023-05-09T13:30:48;6.20;;;3.63;;
79728;SDS011;69218;52.132;5.418;2023-05-09T13:33:15;6.00;;;3.60;;
79728;SDS011;69218;52.132;5.418;2023-05-09T13:35:51;5.80;;;3.53;;
79728;SDS011;69218;52.132;5.418;2023-05-09T13:38:18;6.88;;;3.45;;
79728;SDS011;69218;52.132;5.418;2023-05-09T13:40:44;7.07;;;3.55;;
79728;SDS011;69218;52.132;5.418;2023-05-09T13:43:11;6.70;;;3.78;;
79728;SDS011;69218;52.132;5.418;2023-05-09T13:45:37;4.53;;;2.97;;
79728;SDS011;69218;52.132;5.418;2023-05-09T13:48:07;5.95;;;3.00;;
79728;SDS011;69218;52.132;5.418;2023-05-09T13:50:33;5.25;;;3.00;;
79728;SDS011;69218;52.132;5.418;2023-05-09T13:52:59;5.70;;;3.40;;
79728;SDS011;69218;52.132;5.418;2023-05-09T13:55:26;4.72;;;2.83;;
79728;SDS011;69218;52.132;5.418;2023-05-09T13:57:53;4.32;;;2.90;;
79728;SDS011;69218;52.132;5.418;2023-05-09T14:00:20;4.75;;;2.90;;
79728;SDS011;69218;52.132;5.418;2023-05-09T14:02:47;4.90;;;2.83;;
79728;SDS011;69218;52.132;5.418;2023-05-09T14:05:13;5.07;;;3.10;;
79728;SDS011;69218;52.132;5.418;2023-05-09T14:07:40;6.47;;;3.10;;
79728;SDS011;69218;52.132;5.418;2023-05-09T14:10:08;5.38;;;3.10;;
79728;SDS011;69218;52.132;5.418;2023-05-09T14:12:38;5.88;;;3.20;;
79728;SDS011;69218;52.132;5.418;2023-05-09T14:15:05;7.60;;;3.53;;
79728;SDS011;69218;52.132;5.418;2023-05-09T14:17:32;6.68;;;2.88;;
79728;SDS011;69218;52.132;5.418;2023-05-09T14:19:59;4.60;;;2.90;;
79728;SDS011;69218;52.132;5.418;2023-05-09T14:22:26;5.65;;;3.20;;
79728;SDS011;69218;52.132;5.418;2023-05-09T14:24:53;4.90;;;2.80;;
79728;SDS011;69218;52.132;5.418;2023-05-09T14:27:21;4.72;;;2.58;;
79728;SDS011;69218;52.132;5.418;2023-05-09T14:29:48;7.35;;;3.47;;
79728;SDS011;69218;52.132;5.418;2023-05-09T14:32:14;4.80;;;2.85;;
79728;SDS011;69218;52.132;5.418;2023-05-09T14:34:41;4.28;;;2.70;;
79728;SDS011;69218;52.132;5.418;2023-05-09T14:37:07;3.92;;;2.15;;
79728;SDS011;69218;52.132;5.418;2023-05-09T14:39:42;5.63;;;2.80;;
79728;SDS011;69218;52.132;5.418;2023-05-09T14:42:10;4.13;;;2.42;;
79728;SDS011;69218;52.132;5.418;2023-05-09T14:47:06;4.70;;;2.40;;
79728;SDS011;69218;52.132;5.418;2023-05-09T14:49:35;4.10;;;2.60;;
79728;SDS011;69218;52.132;5.418;2023-05-09T14:52:02;3.35;;;2.25;;
79728;SDS011;69218;52.132;5.418;2023-05-09T14:54:28;3.53;;;2.47;;
79728;SDS011;69218;52.132;5.418;2023-05-09T14:56:55;4.05;;;2.30;;
79728;SDS011;69218;52.132;5.418;2023-05-09T14:59:22;4.50;;;2.63;;
79728;SDS011;69218;52.132;5.418;2023-05-09T15:01:48;4.32;;;2.33;;
79728;SDS011;69218;52.132;5.418;2023-05-09T15:04:16;4.93;;;2.13;;
79728;SDS011;69218;52.132;5.418;2023-05-09T15:06:44;5.18;;;2.38;;
79728;SDS011;69218;52.132;5.418;2023-05-09T15:09:10;4.38;;;2.50;;
79728;SDS011;69218;52.132;5.418;2023-05-09T15:11:37;3.85;;;2.35;;